METAR AND TAF INFORMATION
METAR FOR LGKO
ADDS - METARS form results

(1536 UTC 19 May 2019)
Data provider http://aviationweather.gov/metar/data/
 
METAR text: LGKO 191520Z 18011KT CAVOK 24/12 Q1012
Conditions at: LGKO (KOS AIRPORT , GR) observed 1520 UTC 19 May 2019
Temperature: 24.0°C (75°F)
Dewpoint: 12.0°C (54°F) [RH = 47%]
Pressure (altimeter): 29.88 inches Hg (1012.0 mb)
Winds: from the S (180 degrees) at 13 MPH (11 knots; 5.7 m/s)
Visibility: 6 or more miles (10+ km)
Ceiling: ceiling and visibility are OK
Clouds: unknown
Weather: no significant weather observed at this time

METAR text: LGKO 191450Z 18011KT CAVOK 24/12 Q1012
Conditions at: LGKO (KOS AIRPORT , GR) observed 1450 UTC 19 May 2019
Temperature: 24.0°C (75°F)
Dewpoint: 12.0°C (54°F) [RH = 47%]
Pressure (altimeter): 29.88 inches Hg (1012.0 mb)
Winds: from the S (180 degrees) at 13 MPH (11 knots; 5.7 m/s)
Visibility: 6 or more miles (10+ km)
Ceiling: ceiling and visibility are OK
Clouds: unknown
Weather: no significant weather observed at this time

Forecast for: LGKO (KOS AIRPORT , GR)
Text: TAF LGKO 191100Z 1912/2012 21012KT 9999 FEW020
Forecast period: 1200 to 1500 UTC 19 May 2019
Forecast type: FROM: standard forecast or significant change
Winds: from the SSW (210 degrees) at 14 MPH (12 knots; 6.2 m/s)
Visibility: 6 or more miles 10+ km)
Ceiling: at least 12,000 feet AGL
Clouds: few clouds at 2000 feet AGL
Weather: no significant weather forecast for this period
Text: BECMG 1915/1917 15016KT
Forecast period: 1500 UTC 19 May 2019 to 1200 UTC 20 May 2019
Forecast type: BECOMING: Conditions expected to become as follows by 1700 UTC 19 May 2019
Winds: from the SSE (150 degrees) at 18 MPH (16 knots; 8.2 m/s)
Visibility: 6 or more miles 10+ km)
Ceiling: at least 12,000 feet AGL
Clouds: few clouds at 2000 feet AGL
Weather: no significant weather forecast for this period
Text: TEMPO 1916/1918 15015G25KT
Forecast period: 1600 to 1800 UTC 19 May 2019
Forecast type: TEMPORARY: The following changes expected for less than half the time period
Winds: from the SSE (150 degrees) at 17 MPH (15 knots; 7.7 m/s)
gusting to 29 MPH (25 knots; 12.9 m/s)
Visibility: missing
Ceiling: unknown
Clouds: missing
Weather: no significant weather forecast for this period

 ΧΑΡΤΗΣ ΑΕΡΟΔΡΟΜΙΟΥ

 RUNWAY INFORMATION
Διάδρομος 14 Runway length 7841 ft Runway width 148 ft
Runway elevation 412 ft Runway displaced threshold 0 ft Runway heading 148
Διάδρομος 32 Runway length 7841 ft Runway width 148 ft
Runway elevation 373 ft Runway displaced threshold 0 ft Runway heading 328

 ΣΥΧΝΟΤΗΤΕΣ ΑΕΡΟΔΡΟΜΙΟΥ
Τύπος A/G Όνομα IPPOKRATIS Συχνότητα 563.7 MHZ
Τύπος APP Όνομα APP Συχνότητα 119.95 MHZ
Τύπος ATIS Όνομα ATIS Συχνότητα 126.95 MHZ
Τύπος TWR Όνομα IPPOKRATIS Συχνότητα 121.05 MHZ

 AIRPORT NEAR NAVIGATION AIDS
Τύπος VOR-DME Όνομα Kos Συχνότητα 109000 KHZ
Τύπος NDB Όνομα Kos Συχνότητα 311 KHZ



Hellenic Air Force Virtual - All rights reserved 2019 - Powered by VAM